Union City, Missouri
Current Conditions -  °F | °C
As of 3:22 AM on Friday 19 Dec 2014 (Local Time) from KSGF Reporting Station
Haze Haze  
Wind Chill: 38°   Ceiling: 400
Heat Index: 38°   Visibility: 5mi
Dew Point: 36°   Wind: 0mph
Humidity: 93%   Direction: NA
Pressure: 30.19"   Gusts: NA
Location:  37.0483°N, 93.5506°W
Report Text: KSGF 190922Z 00000KT 5SM BR OVC004 03/02 A3019 RMK AO2 T00330022
Loading
Personal Weather Stations






























Interactive Weather Map New forecast layout! Learn more

10-Day Weather Forecast

Advertisements
Track Severe Weather on mobile